createdAt,value
2019-03-21T12:58:46.824Z,2.35
2019-03-21T13:01:34.946Z,2.60
2019-03-21T13:04:03.992Z,2.42
2019-03-21T13:06:33.032Z,2.25
2019-03-21T13:09:05.984Z,2.58
2019-03-21T13:11:34.784Z,2.60
2019-03-21T13:14:05.245Z,2.80
2019-03-21T13:16:33.963Z,2.45
2019-03-21T13:19:02.720Z,2.42
2019-03-21T13:21:31.825Z,2.83
2019-03-21T13:24:00.585Z,2.40
2019-03-21T13:26:29.472Z,2.15
2019-03-21T13:29:00.104Z,2.40
2019-03-21T13:34:01.164Z,2.83
2019-03-21T13:36:31.564Z,2.47
2019-03-21T13:39:00.525Z,2.58
2019-03-21T13:41:31.863Z,2.45
2019-03-21T13:44:02.985Z,2.37
2019-03-21T13:46:34.704Z,2.27
2019-03-21T13:49:05.791Z,2.20
2019-03-21T13:51:34.304Z,2.27
2019-03-21T13:54:08.573Z,2.45
2019-03-21T13:56:38.256Z,2.45
2019-03-21T13:59:10.429Z,2.40
2019-03-21T14:01:42.765Z,2.70
2019-03-21T14:04:11.544Z,2.40
2019-03-21T14:06:43.133Z,2.58
2019-03-21T14:09:11.984Z,2.60
2019-03-21T14:11:46.445Z,2.22
2019-03-21T14:14:17.886Z,2.12
2019-03-21T14:16:46.684Z,2.42
2019-03-21T14:19:17.964Z,2.47
2019-03-21T14:21:52.285Z,2.52
2019-03-21T14:24:22.685Z,2.20
2019-03-21T14:26:51.465Z,2.25
2019-03-21T14:29:20.344Z,2.52
2019-03-21T14:31:57.407Z,2.60
2019-03-21T14:34:26.270Z,2.40
2019-03-21T14:36:56.964Z,2.50
2019-03-21T14:41:53.908Z,2.10
2019-03-21T14:44:22.744Z,2.77
2019-03-21T14:46:51.544Z,2.85
2019-03-21T14:49:20.367Z,2.67
2019-03-21T14:51:56.124Z,3.17
2019-03-21T14:54:25.524Z,2.87
2019-03-21T14:56:59.267Z,2.55
2019-03-21T14:59:33.444Z,2.52
2019-03-21T15:02:02.612Z,2.85
2019-03-21T15:04:31.404Z,2.62
2019-03-21T15:07:00.512Z,2.98
2019-03-21T15:09:29.364Z,2.60
2019-03-21T15:11:58.435Z,2.47
2019-03-21T15:14:32.103Z,2.60
2019-03-21T15:17:04.544Z,2.50
2019-03-21T15:19:33.404Z,2.77
2019-03-21T15:22:09.504Z,2.70
2019-03-21T15:24:39.644Z,3.10
2019-03-21T15:27:17.124Z,2.50
2019-03-21T15:29:51.261Z,3.05
2019-03-21T15:32:23.384Z,2.58
2019-03-21T15:34:52.264Z,2.60
2019-03-21T15:37:21.026Z,3.45
2019-03-21T15:39:49.784Z,3.52
2019-03-21T15:42:18.744Z,2.98
2019-03-21T15:44:51.666Z,3.30
2019-03-21T15:47:20.206Z,3.20
2019-03-21T15:49:49.087Z,4.50
2019-03-21T15:52:18.134Z,3.25
2019-03-21T15:54:50.266Z,3.10
2019-03-21T15:57:23.214Z,3.10
2019-03-21T15:59:54.948Z,2.98
2019-03-21T16:02:23.653Z,3.60
2019-03-21T16:07:47.686Z,3.02
2019-03-21T16:10:17.638Z,3.10
2019-03-21T16:12:46.426Z,2.92
2019-03-21T16:15:18.291Z,3.33
2019-03-21T16:18:02.086Z,4.20
2019-03-21T16:24:05.140Z,4.33
2019-03-21T16:29:57.944Z,5.20
2019-03-21T16:32:54.168Z,4.90
